sensor_id;sensor_type;location;lat;lon;timestamp;P1;durP1;ratioP1;P2;durP2;ratioP2
41468;SDS011;27206;47.032;15.484;2023-02-21T00:01:45;2.13;;;1.20;;
41468;SDS011;27206;47.032;15.484;2023-02-21T00:04:29;4.50;;;1.48;;
41468;SDS011;27206;47.032;15.484;2023-02-21T00:07:13;3.97;;;2.38;;
41468;SDS011;27206;47.032;15.484;2023-02-21T00:09:57;1.88;;;1.25;;
41468;SDS011;27206;47.032;15.484;2023-02-21T00:12:41;3.85;;;1.73;;
41468;SDS011;27206;47.032;15.484;2023-02-21T00:15:25;2.47;;;1.20;;
41468;SDS011;27206;47.032;15.484;2023-02-21T00:18:09;1.45;;;1.20;;
41468;SDS011;27206;47.032;15.484;2023-02-21T00:20:53;1.95;;;1.33;;
41468;SDS011;27206;47.032;15.484;2023-02-21T00:23:37;2.38;;;1.42;;
41468;SDS011;27206;47.032;15.484;2023-02-21T00:26:21;3.05;;;1.70;;
41468;SDS011;27206;47.032;15.484;2023-02-21T00:29:05;4.80;;;1.45;;
41468;SDS011;27206;47.032;15.484;2023-02-21T00:31:50;4.20;;;1.67;;
41468;SDS011;27206;47.032;15.484;2023-02-21T00:34:34;1.63;;;1.20;;
41468;SDS011;27206;47.032;15.484;2023-02-21T00:37:19;3.00;;;1.13;;
41468;SDS011;27206;47.032;15.484;2023-02-21T00:40:03;2.72;;;1.45;;
41468;SDS011;27206;47.032;15.484;2023-02-21T00:42:47;2.00;;;1.30;;
41468;SDS011;27206;47.032;15.484;2023-02-21T00:45:31;0.93;;;0.90;;
41468;SDS011;27206;47.032;15.484;2023-02-21T00:48:19;3.72;;;1.08;;
41468;SDS011;27206;47.032;15.484;2023-02-21T00:51:05;1.95;;;1.20;;
41468;SDS011;27206;47.032;15.484;2023-02-21T00:53:49;2.03;;;1.33;;
41468;SDS011;27206;47.032;15.484;2023-02-21T00:56:33;1.38;;;1.10;;
41468;SDS011;27206;47.032;15.484;2023-02-21T00:59:17;2.20;;;1.48;;
41468;SDS011;27206;47.032;15.484;2023-02-21T01:02:01;1.15;;;1.00;;
41468;SDS011;27206;47.032;15.484;2023-02-21T01:04:46;2.45;;;1.30;;
41468;SDS011;27206;47.032;15.484;2023-02-21T01:07:29;1.42;;;1.13;;
41468;SDS011;27206;47.032;15.484;2023-02-21T01:10:14;2.03;;;1.38;;
41468;SDS011;27206;47.032;15.484;2023-02-21T01:12:58;3.35;;;2.05;;
41468;SDS011;27206;47.032;15.484;2023-02-21T01:15:42;1.77;;;1.25;;
41468;SDS011;27206;47.032;15.484;2023-02-21T01:18:26;3.88;;;1.13;;
41468;SDS011;27206;47.032;15.484;2023-02-21T01:21:11;0.75;;;0.70;;
41468;SDS011;27206;47.032;15.484;2023-02-21T01:23:56;1.15;;;0.90;;
41468;SDS011;27206;47.032;15.484;2023-02-21T01:26:40;1.30;;;1.10;;
41468;SDS011;27206;47.032;15.484;2023-02-21T01:29:25;2.45;;;0.93;;
41468;SDS011;27206;47.032;15.484;2023-02-21T01:32:09;1.10;;;1.00;;
41468;SDS011;27206;47.032;15.484;2023-02-21T01:34:53;1.27;;;1.08;;
41468;SDS011;27206;47.032;15.484;2023-02-21T01:37:38;1.40;;;1.20;;
41468;SDS011;27206;47.032;15.484;2023-02-21T01:40:23;1.88;;;1.70;;
41468;SDS011;27206;47.032;15.484;2023-02-21T01:43:18;1.27;;;1.10;;
41468;SDS011;27206;47.032;15.484;2023-02-21T01:46:04;1.55;;;1.13;;
41468;SDS011;27206;47.032;15.484;2023-02-21T01:48:49;1.88;;;0.70;;
41468;SDS011;27206;47.032;15.484;2023-02-21T01:51:37;5.90;;;1.20;;
41468;SDS011;27206;47.032;15.484;2023-02-21T01:54:23;0.68;;;0.68;;
41468;SDS011;27206;47.032;15.484;2023-02-21T01:57:11;1.38;;;1.13;;
41468;SDS011;27206;47.032;15.484;2023-02-21T01:59:56;2.42;;;1.27;;
41468;SDS011;27206;47.032;15.484;2023-02-21T02:05:29;0.95;;;0.95;;
41468;SDS011;27206;47.032;15.484;2023-02-21T02:08:14;1.25;;;0.90;;
41468;SDS011;27206;47.032;15.484;2023-02-21T02:11:08;2.10;;;0.98;;
41468;SDS011;27206;47.032;15.484;2023-02-21T02:16:54;1.65;;;0.88;;
41468;SDS011;27206;47.032;15.484;2023-02-21T02:27:33;1.08;;;0.70;;
41468;SDS011;27206;47.032;15.484;2023-02-21T02:30:31;1.15;;;0.82;;
41468;SDS011;27206;47.032;15.484;2023-02-21T02:36:38;2.47;;;1.17;;
41468;SDS011;27206;47.032;15.484;2023-02-21T02:39:22;1.45;;;1.02;;
41468;SDS011;27206;47.032;15.484;2023-02-21T02:42:17;1.42;;;0.90;;
41468;SDS011;27206;47.032;15.484;2023-02-21T02:44:52;3.08;;;1.10;;
41468;SDS011;27206;47.032;15.484;2023-02-21T02:47:27;2.22;;;1.80;;
41468;SDS011;27206;47.032;15.484;2023-02-21T02:49:55;0.88;;;0.70;;
41468;SDS011;27206;47.032;15.484;2023-02-21T02:52:23;2.08;;;1.38;;
41468;SDS011;27206;47.032;15.484;2023-02-21T02:54:58;1.95;;;1.23;;
41468;SDS011;27206;47.032;15.484;2023-02-21T02:57:26;2.97;;;0.80;;
41468;SDS011;27206;47.032;15.484;2023-02-21T03:00:05;1.50;;;1.08;;
41468;SDS011;27206;47.032;15.484;2023-02-21T03:05:49;2.95;;;1.40;;
41468;SDS011;27206;47.032;15.484;2023-02-21T03:08:32;2.05;;;0.90;;
41468;SDS011;27206;47.032;15.484;2023-02-21T03:11:16;2.28;;;1.05;;
41468;SDS011;27206;47.032;15.484;2023-02-21T03:16:35;3.35;;;0.95;;
41468;SDS011;27206;47.032;15.484;2023-02-21T03:19:09;1.17;;;0.95;;
41468;SDS011;27206;47.032;15.484;2023-02-21T03:21:46;2.55;;;1.05;;
41468;SDS011;27206;47.032;15.484;2023-02-21T03:24:16;1.27;;;0.93;;
41468;SDS011;27206;47.032;15.484;2023-02-21T03:26:45;1.52;;;0.82;;
41468;SDS011;27206;47.032;15.484;2023-02-21T03:29:13;4.63;;;1.33;;
41468;SDS011;27206;47.032;15.484;2023-02-21T03:31:45;2.00;;;1.02;;
41468;SDS011;27206;47.032;15.484;2023-02-21T03:34:15;1.63;;;1.15;;
41468;SDS011;27206;47.032;15.484;2023-02-21T03:36:41;1.15;;;0.90;;
41468;SDS011;27206;47.032;15.484;2023-02-21T03:39:07;1.98;;;0.93;;
41468;SDS011;27206;47.032;15.484;2023-02-21T03:41:33;1.70;;;0.77;;
41468;SDS011;27206;47.032;15.484;2023-02-21T03:43:58;1.55;;;1.05;;
41468;SDS011;27206;47.032;15.484;2023-02-21T03:46:24;3.42;;;1.23;;
41468;SDS011;27206;47.032;15.484;2023-02-21T03:48:50;1.20;;;1.10;;
41468;SDS011;27206;47.032;15.484;2023-02-21T03:51:16;1.65;;;1.23;;
41468;SDS011;27206;47.032;15.484;2023-02-21T03:53:41;2.00;;;1.27;;
41468;SDS011;27206;47.032;15.484;2023-02-21T03:56:07;3.22;;;1.50;;
41468;SDS011;27206;47.032;15.484;2023-02-21T03:58:33;1.27;;;1.00;;
41468;SDS011;27206;47.032;15.484;2023-02-21T04:00:58;1.02;;;0.63;;
41468;SDS011;27206;47.032;15.484;2023-02-21T04:03:24;1.75;;;1.30;;
41468;SDS011;27206;47.032;15.484;2023-02-21T04:05:50;1.02;;;0.80;;
41468;SDS011;27206;47.032;15.484;2023-02-21T04:08:16;1.80;;;1.27;;
41468;SDS011;27206;47.032;15.484;2023-02-21T04:10:42;0.63;;;0.63;;
41468;SDS011;27206;47.032;15.484;2023-02-21T04:13:07;1.50;;;0.70;;
41468;SDS011;27206;47.032;15.484;2023-02-21T04:15:34;1.33;;;0.98;;
41468;SDS011;27206;47.032;15.484;2023-02-21T04:18:00;2.58;;;1.70;;
41468;SDS011;27206;47.032;15.484;2023-02-21T04:20:25;2.10;;;1.23;;
41468;SDS011;27206;47.032;15.484;2023-02-21T04:22:51;0.73;;;0.73;;
41468;SDS011;27206;47.032;15.484;2023-02-21T04:25:17;1.38;;;1.15;;
41468;SDS011;27206;47.032;15.484;2023-02-21T04:27:42;19.05;;;6.00;;
41468;SDS011;27206;47.032;15.484;2023-02-21T04:30:08;3.78;;;1.48;;
41468;SDS011;27206;47.032;15.484;2023-02-21T04:32:34;2.13;;;1.33;;
41468;SDS011;27206;47.032;15.484;2023-02-21T04:35:00;2.60;;;1.63;;
41468;SDS011;27206;47.032;15.484;2023-02-21T04:37:26;5.43;;;1.92;;
41468;SDS011;27206;47.032;15.484;2023-02-21T04:39:51;1.77;;;1.40;;
41468;SDS011;27206;47.032;15.484;2023-02-21T04:42:17;1.95;;;1.50;;
41468;SDS011;27206;47.032;15.484;2023-02-21T04:44:43;0.93;;;0.70;;
41468;SDS011;27206;47.032;15.484;2023-02-21T04:47:08;1.48;;;0.90;;
41468;SDS011;27206;47.032;15.484;2023-02-21T04:49:34;1.92;;;1.48;;
41468;SDS011;27206;47.032;15.484;2023-02-21T04:52:00;2.38;;;1.58;;
41468;SDS011;27206;47.032;15.484;2023-02-21T04:54:25;1.63;;;0.77;;
41468;SDS011;27206;47.032;15.484;2023-02-21T04:56:51;1.75;;;1.50;;
41468;SDS011;27206;47.032;15.484;2023-02-21T04:59:16;1.40;;;1.20;;
41468;SDS011;27206;47.032;15.484;2023-02-21T05:01:42;1.77;;;0.90;;
41468;SDS011;27206;47.032;15.484;2023-02-21T05:04:08;1.45;;;0.88;;
41468;SDS011;27206;47.032;15.484;2023-02-21T05:06:33;1.92;;;0.90;;
41468;SDS011;27206;47.032;15.484;2023-02-21T05:08:59;0.73;;;0.70;;
41468;SDS011;27206;47.032;15.484;2023-02-21T05:11:26;1.40;;;1.00;;
41468;SDS011;27206;47.032;15.484;2023-02-21T05:13:52;1.42;;;1.00;;
41468;SDS011;27206;47.032;15.484;2023-02-21T05:16:18;1.90;;;1.05;;
41468;SDS011;27206;47.032;15.484;2023-02-21T05:18:45;1.15;;;1.00;;
41468;SDS011;27206;47.032;15.484;2023-02-21T05:21:11;1.15;;;1.00;;
41468;SDS011;27206;47.032;15.484;2023-02-21T05:23:38;1.95;;;1.52;;
41468;SDS011;27206;47.032;15.484;2023-02-21T05:26:06;1.67;;;1.13;;
41468;SDS011;27206;47.032;15.484;2023-02-21T05:28:35;1.33;;;0.95;;
41468;SDS011;27206;47.032;15.484;2023-02-21T05:31:01;1.65;;;1.33;;
41468;SDS011;27206;47.032;15.484;2023-02-21T05:33:27;2.75;;;1.30;;
41468;SDS011;27206;47.032;15.484;2023-02-21T05:35:53;2.70;;;0.88;;
41468;SDS011;27206;47.032;15.484;2023-02-21T05:38:19;1.13;;;0.85;;
41468;SDS011;27206;47.032;15.484;2023-02-21T05:40:47;4.63;;;1.77;;
41468;SDS011;27206;47.032;15.484;2023-02-21T05:43:12;0.75;;;0.50;;
41468;SDS011;27206;47.032;15.484;2023-02-21T05:45:39;0.60;;;0.60;;
41468;SDS011;27206;47.032;15.484;2023-02-21T05:48:05;1.42;;;1.10;;
41468;SDS011;27206;47.032;15.484;2023-02-21T05:50:30;3.13;;;1.40;;
41468;SDS011;27206;47.032;15.484;2023-02-21T05:52:57;0.88;;;0.88;;
41468;SDS011;27206;47.032;15.484;2023-02-21T05:55:23;1.40;;;0.75;;
41468;SDS011;27206;47.032;15.484;2023-02-21T05:57:50;1.80;;;1.00;;
41468;SDS011;27206;47.032;15.484;2023-02-21T06:00:20;1.70;;;0.93;;
41468;SDS011;27206;47.032;15.484;2023-02-21T06:02:48;1.00;;;0.63;;
41468;SDS011;27206;47.032;15.484;2023-02-21T06:05:16;3.22;;;1.00;;
41468;SDS011;27206;47.032;15.484;2023-02-21T06:07:42;1.50;;;1.23;;
41468;SDS011;27206;47.032;15.484;2023-02-21T06:10:08;1.67;;;0.95;;
41468;SDS011;27206;47.032;15.484;2023-02-21T06:12:33;0.80;;;0.80;;
41468;SDS011;27206;47.032;15.484;2023-02-21T06:15:00;1.70;;;0.85;;
41468;SDS011;27206;47.032;15.484;2023-02-21T06:17:26;0.60;;;0.60;;
41468;SDS011;27206;47.032;15.484;2023-02-21T06:19:54;1.98;;;0.93;;
41468;SDS011;27206;47.032;15.484;2023-02-21T06:22:20;0.82;;;0.80;;
41468;SDS011;27206;47.032;15.484;2023-02-21T06:24:46;1.73;;;1.08;;
41468;SDS011;27206;47.032;15.484;2023-02-21T06:27:11;1.20;;;0.75;;
41468;SDS011;27206;47.032;15.484;2023-02-21T06:29:39;1.52;;;1.00;;
41468;SDS011;27206;47.032;15.484;2023-02-21T06:32:05;1.40;;;1.00;;
41468;SDS011;27206;47.032;15.484;2023-02-21T06:34:31;1.45;;;1.10;;
41468;SDS011;27206;47.032;15.484;2023-02-21T06:36:56;1.13;;;0.82;;
41468;SDS011;27206;47.032;15.484;2023-02-21T06:39:22;2.50;;;1.40;;
41468;SDS011;27206;47.032;15.484;2023-02-21T06:41:48;3.58;;;0.85;;
41468;SDS011;27206;47.032;15.484;2023-02-21T06:44:15;1.80;;;1.00;;
41468;SDS011;27206;47.032;15.484;2023-02-21T06:46:41;0.95;;;0.95;;
41468;SDS011;27206;47.032;15.484;2023-02-21T06:49:07;1.85;;;0.90;;
41468;SDS011;27206;47.032;15.484;2023-02-21T06:51:34;2.28;;;1.25;;
41468;SDS011;27206;47.032;15.484;2023-02-21T06:54:00;1.33;;;0.75;;
41468;SDS011;27206;47.032;15.484;2023-02-21T06:56:26;1.60;;;1.10;;
41468;SDS011;27206;47.032;15.484;2023-02-21T06:58:52;1.30;;;1.05;;
41468;SDS011;27206;47.032;15.484;2023-02-21T07:01:18;3.05;;;1.35;;
41468;SDS011;27206;47.032;15.484;2023-02-21T07:03:45;1.33;;;0.98;;
41468;SDS011;27206;47.032;15.484;2023-02-21T07:06:11;2.25;;;1.00;;
41468;SDS011;27206;47.032;15.484;2023-02-21T07:08:37;0.73;;;0.73;;
41468;SDS011;27206;47.032;15.484;2023-02-21T07:11:03;1.30;;;1.10;;
41468;SDS011;27206;47.032;15.484;2023-02-21T07:13:29;1.75;;;0.70;;
41468;SDS011;27206;47.032;15.484;2023-02-21T07:15:56;4.80;;;1.20;;
41468;SDS011;27206;47.032;15.484;2023-02-21T07:18:21;3.45;;;1.58;;
41468;SDS011;27206;47.032;15.484;2023-02-21T07:20:47;1.80;;;1.15;;
41468;SDS011;27206;47.032;15.484;2023-02-21T07:23:13;2.47;;;1.40;;
41468;SDS011;27206;47.032;15.484;2023-02-21T07:25:39;2.55;;;1.13;;
41468;SDS011;27206;47.032;15.484;2023-02-21T07:28:05;2.58;;;1.60;;
41468;SDS011;27206;47.032;15.484;2023-02-21T07:30:30;1.98;;;1.40;;
41468;SDS011;27206;47.032;15.484;2023-02-21T07:32:56;2.47;;;1.13;;
41468;SDS011;27206;47.032;15.484;2023-02-21T07:35:22;0.80;;;0.80;;
41468;SDS011;27206;47.032;15.484;2023-02-21T07:37:48;1.98;;;1.30;;
41468;SDS011;27206;47.032;15.484;2023-02-21T07:40:14;3.85;;;1.33;;
41468;SDS011;27206;47.032;15.484;2023-02-21T07:42:40;1.30;;;1.10;;
41468;SDS011;27206;47.032;15.484;2023-02-21T07:45:07;2.95;;;1.48;;
41468;SDS011;27206;47.032;15.484;2023-02-21T07:47:36;1.60;;;0.98;;
41468;SDS011;27206;47.032;15.484;2023-02-21T07:50:02;1.67;;;1.23;;
41468;SDS011;27206;47.032;15.484;2023-02-21T07:52:28;2.90;;;1.15;;
41468;SDS011;27206;47.032;15.484;2023-02-21T07:54:53;1.30;;;1.15;;
41468;SDS011;27206;47.032;15.484;2023-02-21T07:57:19;2.45;;;1.40;;
41468;SDS011;27206;47.032;15.484;2023-02-21T07:59:46;2.17;;;1.55;;
41468;SDS011;27206;47.032;15.484;2023-02-21T08:02:12;4.38;;;1.50;;
41468;SDS011;27206;47.032;15.484;2023-02-21T08:04:38;4.30;;;1.67;;
41468;SDS011;27206;47.032;15.484;2023-02-21T08:07:04;3.40;;;1.70;;
41468;SDS011;27206;47.032;15.484;2023-02-21T08:09:30;1.38;;;1.27;;
41468;SDS011;27206;47.032;15.484;2023-02-21T08:11:57;2.58;;;1.27;;
41468;SDS011;27206;47.032;15.484;2023-02-21T08:14:23;2.47;;;1.30;;
41468;SDS011;27206;47.032;15.484;2023-02-21T08:16:49;3.08;;;1.55;;
41468;SDS011;27206;47.032;15.484;2023-02-21T08:19:15;2.40;;;1.40;;
41468;SDS011;27206;47.032;15.484;2023-02-21T08:21:44;2.80;;;1.65;;
41468;SDS011;27206;47.032;15.484;2023-02-21T08:24:13;4.80;;;1.90;;
41468;SDS011;27206;47.032;15.484;2023-02-21T08:26:39;2.72;;;1.58;;
41468;SDS011;27206;47.032;15.484;2023-02-21T08:29:06;3.92;;;1.70;;
41468;SDS011;27206;47.032;15.484;2023-02-21T08:31:35;2.38;;;1.40;;
41468;SDS011;27206;47.032;15.484;2023-02-21T08:34:02;1.42;;;1.17;;
41468;SDS011;27206;47.032;15.484;2023-02-21T08:36:32;2.22;;;1.38;;
41468;SDS011;27206;47.032;15.484;2023-02-21T08:39:02;3.17;;;1.25;;
41468;SDS011;27206;47.032;15.484;2023-02-21T08:41:38;3.00;;;1.55;;
41468;SDS011;27206;47.032;15.484;2023-02-21T08:44:06;3.60;;;2.08;;
41468;SDS011;27206;47.032;15.484;2023-02-21T08:46:33;2.75;;;1.75;;
41468;SDS011;27206;47.032;15.484;2023-02-21T08:48:59;5.50;;;2.33;;
41468;SDS011;27206;47.032;15.484;2023-02-21T08:51:27;4.65;;;2.50;;
41468;SDS011;27206;47.032;15.484;2023-02-21T08:53:53;5.53;;;2.88;;
41468;SDS011;27206;47.032;15.484;2023-02-21T08:56:19;2.58;;;1.65;;
41468;SDS011;27206;47.032;15.484;2023-02-21T08:58:46;6.32;;;2.33;;
41468;SDS011;27206;47.032;15.484;2023-02-21T09:01:11;5.22;;;2.33;;
41468;SDS011;27206;47.032;15.484;2023-02-21T09:03:37;4.95;;;2.70;;
41468;SDS011;27206;47.032;15.484;2023-02-21T09:06:02;5.90;;;3.22;;
41468;SDS011;27206;47.032;15.484;2023-02-21T09:08:29;4.57;;;2.38;;
41468;SDS011;27206;47.032;15.484;2023-02-21T09:10:55;5.00;;;2.47;;
41468;SDS011;27206;47.032;15.484;2023-02-21T09:13:25;6.82;;;2.78;;
41468;SDS011;27206;47.032;15.484;2023-02-21T09:15:51;7.38;;;2.20;;
41468;SDS011;27206;47.032;15.484;2023-02-21T09:18:16;2.60;;;1.98;;
41468;SDS011;27206;47.032;15.484;2023-02-21T09:20:42;2.47;;;2.17;;
41468;SDS011;27206;47.032;15.484;2023-02-21T09:23:09;3.58;;;1.83;;
41468;SDS011;27206;47.032;15.484;2023-02-21T09:25:35;4.97;;;1.98;;
41468;SDS011;27206;47.032;15.484;2023-02-21T09:28:01;5.15;;;2.50;;
41468;SDS011;27206;47.032;15.484;2023-02-21T09:30:26;5.40;;;2.20;;
41468;SDS011;27206;47.032;15.484;2023-02-21T09:32:54;3.13;;;1.90;;
41468;SDS011;27206;47.032;15.484;2023-02-21T09:35:21;4.20;;;1.75;;
41468;SDS011;27206;47.032;15.484;2023-02-21T09:37:47;3.88;;;2.03;;
41468;SDS011;27206;47.032;15.484;2023-02-21T09:45:54;3.28;;;2.08;;
41468;SDS011;27206;47.032;15.484;2023-02-21T09:48:24;2.15;;;1.90;;
41468;SDS011;27206;47.032;15.484;2023-02-21T09:50:52;2.55;;;1.77;;
41468;SDS011;27206;47.032;15.484;2023-02-21T09:53:26;4.53;;;2.13;;
41468;SDS011;27206;47.032;15.484;2023-02-21T09:55:56;5.43;;;2.33;;
41468;SDS011;27206;47.032;15.484;2023-02-21T09:58:26;4.13;;;2.38;;
41468;SDS011;27206;47.032;15.484;2023-02-21T10:00:52;3.40;;;2.00;;
41468;SDS011;27206;47.032;15.484;2023-02-21T10:09:26;6.03;;;2.03;;
41468;SDS011;27206;47.032;15.484;2023-02-21T10:20:12;3.30;;;3.00;;
41468;SDS011;27206;47.032;15.484;2023-02-21T10:22:46;3.13;;;2.90;;
41468;SDS011;27206;47.032;15.484;2023-02-21T10:25:32;3.47;;;3.17;;
41468;SDS011;27206;47.032;15.484;2023-02-21T10:28:00;3.00;;;2.53;;
41468;SDS011;27206;47.032;15.484;2023-02-21T10:32:59;3.67;;;3.38;;
41468;SDS011;27206;47.032;15.484;2023-02-21T10:35:30;4.22;;;3.90;;
41468;SDS011;27206;47.032;15.484;2023-02-21T10:37:59;3.58;;;3.28;;
41468;SDS011;27206;47.032;15.484;2023-02-21T10:40:28;4.05;;;3.65;;
41468;SDS011;27206;47.032;15.484;2023-02-21T10:43:08;4.47;;;4.07;;
41468;SDS011;27206;47.032;15.484;2023-02-21T10:45:39;4.50;;;4.20;;
41468;SDS011;27206;47.032;15.484;2023-02-21T10:48:10;4.75;;;4.45;;
41468;SDS011;27206;47.032;15.484;2023-02-21T10:53:31;4.85;;;4.47;;
41468;SDS011;27206;47.032;15.484;2023-02-21T10:56:06;5.45;;;5.05;;
41468;SDS011;27206;47.032;15.484;2023-02-21T10:58:32;5.55;;;5.10;;
41468;SDS011;27206;47.032;15.484;2023-02-21T11:03:51;5.43;;;5.03;;
41468;SDS011;27206;47.032;15.484;2023-02-21T11:06:32;5.00;;;4.70;;
41468;SDS011;27206;47.032;15.484;2023-02-21T11:14:26;5.28;;;4.88;;
41468;SDS011;27206;47.032;15.484;2023-02-21T11:19:57;6.10;;;5.70;;
41468;SDS011;27206;47.032;15.484;2023-02-21T11:27:56;6.57;;;5.82;;
41468;SDS011;27206;47.032;15.484;2023-02-21T11:30:25;6.90;;;6.32;;
41468;SDS011;27206;47.032;15.484;2023-02-21T11:32:51;6.15;;;5.75;;
41468;SDS011;27206;47.032;15.484;2023-02-21T11:35:32;6.50;;;6.00;;
41468;SDS011;27206;47.032;15.484;2023-02-21T11:38:04;6.00;;;5.60;;
41468;SDS011;27206;47.032;15.484;2023-02-21T11:45:36;6.20;;;5.80;;
41468;SDS011;27206;47.032;15.484;2023-02-21T11:48:06;7.03;;;6.53;;
41468;SDS011;27206;47.032;15.484;2023-02-21T11:50:39;6.57;;;6.10;;
41468;SDS011;27206;47.032;15.484;2023-02-21T12:01:20;7.05;;;6.57;;
41468;SDS011;27206;47.032;15.484;2023-02-21T12:06:41;8.27;;;7.70;;
41468;SDS011;27206;47.032;15.484;2023-02-21T12:11:43;7.13;;;6.63;;
41468;SDS011;27206;47.032;15.484;2023-02-21T12:14:27;8.43;;;7.72;;
41468;SDS011;27206;47.032;15.484;2023-02-21T12:17:17;7.80;;;7.40;;
41468;SDS011;27206;47.032;15.484;2023-02-21T12:20:06;8.65;;;8.05;;
41468;SDS011;27206;47.032;15.484;2023-02-21T12:22:53;7.93;;;7.47;;
41468;SDS011;27206;47.032;15.484;2023-02-21T12:25:27;9.73;;;9.13;;
41468;SDS011;27206;47.032;15.484;2023-02-21T12:29:08;8.20;;;7.70;;
41468;SDS011;27206;47.032;15.484;2023-02-21T12:34:01;9.77;;;9.07;;
41468;SDS011;27206;47.032;15.484;2023-02-21T12:39:42;10.82;;;9.80;;
41468;SDS011;27206;47.032;15.484;2023-02-21T12:47:56;10.38;;;9.77;;
41468;SDS011;27206;47.032;15.484;2023-02-21T12:50:28;9.60;;;9.00;;
41468;SDS011;27206;47.032;15.484;2023-02-21T12:55:51;10.23;;;9.65;;
41468;SDS011;27206;47.032;15.484;2023-02-21T12:58:26;9.80;;;9.20;;
41468;SDS011;27206;47.032;15.484;2023-02-21T13:01:25;10.45;;;9.85;;
41468;SDS011;27206;47.032;15.484;2023-02-21T13:04:05;10.23;;;9.68;;
41468;SDS011;27206;47.032;15.484;2023-02-21T13:06:54;9.30;;;8.48;;
41468;SDS011;27206;47.032;15.484;2023-02-21T13:12:04;10.85;;;10.25;;
41468;SDS011;27206;47.032;15.484;2023-02-21T13:14:40;10.60;;;10.05;;
41468;SDS011;27206;47.032;15.484;2023-02-21T13:17:08;9.35;;;8.85;;
41468;SDS011;27206;47.032;15.484;2023-02-21T13:19:41;11.20;;;10.50;;
41468;SDS011;27206;47.032;15.484;2023-02-21T13:28:41;9.50;;;8.73;;
41468;SDS011;27206;47.032;15.484;2023-02-21T13:31:16;10.75;;;10.20;;
41468;SDS011;27206;47.032;15.484;2023-02-21T13:33:52;9.65;;;9.05;;
41468;SDS011;27206;47.032;15.484;2023-02-21T13:36:29;10.18;;;9.65;;
41468;SDS011;27206;47.032;15.484;2023-02-21T13:39:10;9.77;;;9.27;;
41468;SDS011;27206;47.032;15.484;2023-02-21T13:41:43;9.85;;;9.30;;
41468;SDS011;27206;47.032;15.484;2023-02-21T13:44:15;9.25;;;8.77;;
41468;SDS011;27206;47.032;15.484;2023-02-21T13:46:58;9.60;;;9.10;;
41468;SDS011;27206;47.032;15.484;2023-02-21T14:02:54;10.93;;;10.23;;
41468;SDS011;27206;47.032;15.484;2023-02-21T14:08:26;9.35;;;8.82;;
41468;SDS011;27206;47.032;15.484;2023-02-21T14:11:29;9.32;;;8.82;;
41468;SDS011;27206;47.032;15.484;2023-02-21T14:16:17;9.95;;;9.15;;
41468;SDS011;27206;47.032;15.484;2023-02-21T14:19:07;9.60;;;9.10;;
41468;SDS011;27206;47.032;15.484;2023-02-21T14:21:38;9.85;;;9.35;;
41468;SDS011;27206;47.032;15.484;2023-02-21T14:37:13;9.25;;;8.75;;
41468;SDS011;27206;47.032;15.484;2023-02-21T14:40:37;10.63;;;10.02;;
41468;SDS011;27206;47.032;15.484;2023-02-21T14:45:32;10.15;;;9.60;;
41468;SDS011;27206;47.032;15.484;2023-02-21T14:59:02;9.00;;;8.48;;
41468;SDS011;27206;47.032;15.484;2023-02-21T15:02:02;9.90;;;9.35;;
41468;SDS011;27206;47.032;15.484;2023-02-21T15:04:54;9.38;;;8.82;;
41468;SDS011;27206;47.032;15.484;2023-02-21T15:10:22;10.27;;;9.77;;
41468;SDS011;27206;47.032;15.484;2023-02-21T15:12:54;8.73;;;8.23;;
41468;SDS011;27206;47.032;15.484;2023-02-21T15:18:03;9.18;;;8.57;;
41468;SDS011;27206;47.032;15.484;2023-02-21T15:20:30;9.20;;;8.70;;
41468;SDS011;27206;47.032;15.484;2023-02-21T15:22:59;9.88;;;9.38;;
41468;SDS011;27206;47.032;15.484;2023-02-21T15:25:31;9.27;;;8.77;;
41468;SDS011;27206;47.032;15.484;2023-02-21T15:27:58;9.85;;;9.35;;
41468;SDS011;27206;47.032;15.484;2023-02-21T15:30:35;9.65;;;9.05;;
41468;SDS011;27206;47.032;15.484;2023-02-21T15:33:21;9.55;;;8.98;;
41468;SDS011;27206;47.032;15.484;2023-02-21T15:35:52;10.55;;;9.98;;
41468;SDS011;27206;47.032;15.484;2023-02-21T15:38:29;9.40;;;8.90;;
41468;SDS011;27206;47.032;15.484;2023-02-21T15:41:07;9.48;;;8.98;;
41468;SDS011;27206;47.032;15.484;2023-02-21T15:46:45;9.52;;;8.93;;
41468;SDS011;27206;47.032;15.484;2023-02-21T15:49:17;9.27;;;8.77;;
41468;SDS011;27206;47.032;15.484;2023-02-21T15:51:43;9.02;;;8.55;;
41468;SDS011;27206;47.032;15.484;2023-02-21T15:54:20;9.45;;;8.95;;
41468;SDS011;27206;47.032;15.484;2023-02-21T15:56:58;9.02;;;8.52;;
41468;SDS011;27206;47.032;15.484;2023-02-21T15:59:28;9.82;;;9.23;;
41468;SDS011;27206;47.032;15.484;2023-02-21T16:04:38;7.85;;;7.43;;
41468;SDS011;27206;47.032;15.484;2023-02-21T16:07:15;9.07;;;8.48;;
41468;SDS011;27206;47.032;15.484;2023-02-21T16:10:02;7.65;;;7.25;;
41468;SDS011;27206;47.032;15.484;2023-02-21T16:12:32;8.27;;;7.68;;
41468;SDS011;27206;47.032;15.484;2023-02-21T16:15:02;7.65;;;7.15;;
41468;SDS011;27206;47.032;15.484;2023-02-21T16:17:32;7.55;;;7.05;;
41468;SDS011;27206;47.032;15.484;2023-02-21T16:22:46;5.75;;;5.40;;
41468;SDS011;27206;47.032;15.484;2023-02-21T16:27:51;8.00;;;5.90;;
41468;SDS011;27206;47.032;15.484;2023-02-21T16:30:23;5.47;;;5.18;;
41468;SDS011;27206;47.032;15.484;2023-02-21T16:32:51;5.70;;;5.20;;
41468;SDS011;27206;47.032;15.484;2023-02-21T16:35:23;6.20;;;5.80;;
41468;SDS011;27206;47.032;15.484;2023-02-21T16:37:50;6.60;;;5.47;;
41468;SDS011;27206;47.032;15.484;2023-02-21T16:40:19;5.60;;;5.30;;
41468;SDS011;27206;47.032;15.484;2023-02-21T16:42:51;6.25;;;5.75;;
41468;SDS011;27206;47.032;15.484;2023-02-21T16:45:18;6.35;;;5.78;;
41468;SDS011;27206;47.032;15.484;2023-02-21T16:47:44;7.50;;;6.75;;
41468;SDS011;27206;47.032;15.484;2023-02-21T16:50:14;7.28;;;6.45;;
41468;SDS011;27206;47.032;15.484;2023-02-21T16:52:43;8.52;;;6.25;;
41468;SDS011;27206;47.032;15.484;2023-02-21T16:55:12;7.20;;;6.30;;
41468;SDS011;27206;47.032;15.484;2023-02-21T16:57:39;6.78;;;5.50;;
41468;SDS011;27206;47.032;15.484;2023-02-21T17:00:05;6.85;;;5.38;;
41468;SDS011;27206;47.032;15.484;2023-02-21T17:02:32;8.60;;;5.90;;
41468;SDS011;27206;47.032;15.484;2023-02-21T17:04:57;7.60;;;5.22;;
41468;SDS011;27206;47.032;15.484;2023-02-21T17:07:24;5.75;;;5.35;;
41468;SDS011;27206;47.032;15.484;2023-02-21T17:09:49;5.18;;;4.78;;
41468;SDS011;27206;47.032;15.484;2023-02-21T17:12:15;5.50;;;4.78;;
41468;SDS011;27206;47.032;15.484;2023-02-21T17:14:41;5.47;;;5.07;;
41468;SDS011;27206;47.032;15.484;2023-02-21T17:17:06;5.22;;;4.75;;
41468;SDS011;27206;47.032;15.484;2023-02-21T17:19:32;5.13;;;4.72;;
41468;SDS011;27206;47.032;15.484;2023-02-21T17:21:58;4.65;;;4.30;;
41468;SDS011;27206;47.032;15.484;2023-02-21T17:24:24;6.35;;;5.00;;
41468;SDS011;27206;47.032;15.484;2023-02-21T17:26:53;4.85;;;4.43;;
41468;SDS011;27206;47.032;15.484;2023-02-21T17:29:19;4.60;;;4.15;;
41468;SDS011;27206;47.032;15.484;2023-02-21T17:31:46;5.03;;;4.03;;
41468;SDS011;27206;47.032;15.484;2023-02-21T17:34:15;4.63;;;4.22;;
41468;SDS011;27206;47.032;15.484;2023-02-21T17:36:41;4.97;;;4.20;;
41468;SDS011;27206;47.032;15.484;2023-02-21T17:39:06;7.15;;;3.92;;
41468;SDS011;27206;47.032;15.484;2023-02-21T17:41:32;6.50;;;3.95;;
41468;SDS011;27206;47.032;15.484;2023-02-21T17:43:58;5.60;;;4.15;;
41468;SDS011;27206;47.032;15.484;2023-02-21T17:46:24;5.28;;;3.25;;
41468;SDS011;27206;47.032;15.484;2023-02-21T17:48:50;4.35;;;3.95;;
41468;SDS011;27206;47.032;15.484;2023-02-21T17:51:20;5.05;;;2.97;;